Time;durP1;ratioP1;P1;durP2;ratioP2;P2;SDS_P1;SDS_P2;PMS_P1;PMS_P2;Temp;Humidity;BMP_temperature;BMP_pressure;BME280_temperature;BME280_humidity;BME280_pressure;Samples;Min_cycle;Max_cycle;Signal;HPM_P1;HPM_P2
2023/06/22 00:01:42;;;;;;;5.90;1.95;;;;;;;;;;5283539;28;21154;-76
2023/06/22 00:04:14;;;;;;;10.63;1.90;;;;;;;;;;5284601;28;20067;-75
2023/06/22 00:06:45;;;;;;;7.90;1.53;;;;;;;;;;5284020;28;20278;-75
2023/06/22 00:09:16;;;;;;;9.27;2.30;;;;;;;;;;5283696;28;20274;-75
2023/06/22 00:11:47;;;;;;;6.97;1.97;;;;;;;;;;5284006;28;20680;-76
2023/06/22 00:14:18;;;;;;;5.15;1.92;;;;;;;;;;5283711;28;20358;-76
2023/06/22 00:16:54;;;;;;;6.27;1.87;;;;;;;;;;5283865;28;20028;-76
2023/06/22 00:19:25;;;;;;;6.32;2.03;;;;;;;;;;5284275;28;20749;-76
2023/06/22 00:22:00;;;;;;;4.70;2.17;;;;;;;;;;5283302;28;20021;-76
2023/06/22 00:24:31;;;;;;;7.22;2.00;;;;;;;;;;5283952;28;20621;-76
2023/06/22 00:27:02;;;;;;;9.60;1.80;;;;;;;;;;5283614;28;20028;-76
2023/06/22 00:29:33;;;;;;;5.43;2.25;;;;;;;;;;5283404;28;20020;-76
2023/06/22 00:32:05;;;;;;;5.83;2.10;;;;;;;;;;5284264;28;20127;-76
2023/06/22 00:34:36;;;;;;;3.97;1.50;;;;;;;;;;5283964;28;20259;-75
2023/06/22 00:37:07;;;;;;;3.77;2.50;;;;;;;;;;5283183;28;20025;-76
2023/06/22 00:39:38;;;;;;;5.10;2.03;;;;;;;;;;5284015;28;20291;-76
2023/06/22 00:42:10;;;;;;;6.53;1.98;;;;;;;;;;5287856;28;20275;-76
2023/06/22 00:44:41;;;;;;;3.97;2.30;;;;;;;;;;5285669;28;20385;-76
2023/06/22 00:47:17;;;;;;;4.03;2.57;;;;;;;;;;5284116;28;20413;-76
2023/06/22 00:49:51;;;;;;;5.55;2.63;;;;;;;;;;5282543;28;20613;-76
2023/06/22 00:52:27;;;;;;;3.95;2.40;;;;;;;;;;5283366;28;20407;-76
2023/06/22 00:55:02;;;;;;;5.55;2.50;;;;;;;;;;5283180;28;20078;-76
2023/06/22 00:57:37;;;;;;;4.75;2.80;;;;;;;;;;5282211;28;20345;-76
2023/06/22 01:00:09;;;;;;;5.32;2.95;;;;;;;;;;5282860;28;20031;-75
2023/06/22 01:02:41;;;;;;;3.63;3.28;;;;;;;;;;5283025;28;20016;-75
2023/06/22 01:05:13;;;;;;;4.32;3.35;;;;;;;;;;5283095;28;20016;-75
2023/06/22 01:08:07;;;;;;;5.28;3.55;;;;;;;;;;5283033;28;20013;-75
2023/06/22 01:10:48;;;;;;;5.40;4.30;;;;;;;;;;5253687;28;20028;-76
2023/06/22 01:13:25;;;;;;;4.60;4.20;;;;;;;;;;5283078;28;20027;-75
2023/06/22 01:16:05;;;;;;;4.20;3.90;;;;;;;;;;5282651;28;20060;-75
2023/06/22 01:18:40;;;;;;;4.95;4.47;;;;;;;;;;5281954;28;20029;-76
2023/06/22 01:21:13;;;;;;;6.10;4.90;;;;;;;;;;5282764;28;20115;-76
2023/06/22 01:23:50;;;;;;;6.00;5.45;;;;;;;;;;5282404;28;20509;-75
2023/06/22 01:26:28;;;;;;;7.25;5.55;;;;;;;;;;5281874;28;20099;-76
2023/06/22 01:29:00;;;;;;;5.00;4.60;;;;;;;;;;5282219;28;20036;-76
2023/06/22 01:31:32;;;;;;;5.00;4.55;;;;;;;;;;5281706;28;20020;-75
2023/06/22 01:34:04;;;;;;;10.20;5.60;;;;;;;;;;5282179;28;20103;-76
2023/06/22 01:36:37;;;;;;;5.28;4.70;;;;;;;;;;5282538;28;20031;-75
2023/06/22 01:39:08;;;;;;;6.20;5.60;;;;;;;;;;5281412;28;20021;-76
2023/06/22 01:41:41;;;;;;;5.30;4.90;;;;;;;;;;5282206;28;20086;-75
2023/06/22 01:44:13;;;;;;;7.57;6.03;;;;;;;;;;5282415;28;20008;-76
2023/06/22 01:46:46;;;;;;;7.80;5.82;;;;;;;;;;5281229;28;20097;-75
2023/06/22 01:49:17;;;;;;;6.05;5.20;;;;;;;;;;5282572;28;20375;-75
2023/06/22 01:51:49;;;;;;;6.13;5.57;;;;;;;;;;5281580;28;20048;-76
2023/06/22 01:54:20;;;;;;;7.28;6.57;;;;;;;;;;5280343;28;20124;-76
2023/06/22 01:56:51;;;;;;;6.60;5.70;;;;;;;;;;5281755;28;20099;-75
2023/06/22 01:59:28;;;;;;;6.77;6.17;;;;;;;;;;5282382;28;20764;-75
2023/06/22 02:02:09;;;;;;;6.15;5.65;;;;;;;;;;5281446;28;20281;-75
2023/06/22 02:04:46;;;;;;;7.45;6.47;;;;;;;;;;5281911;28;20017;-75
2023/06/22 02:07:18;;;;;;;7.18;5.95;;;;;;;;;;5281760;28;20422;-75
2023/06/22 02:09:51;;;;;;;6.75;5.43;;;;;;;;;;5281814;28;20344;-75
2023/06/22 02:12:23;;;;;;;6.15;5.65;;;;;;;;;;5282268;28;20027;-75
2023/06/22 02:14:55;;;;;;;6.22;5.72;;;;;;;;;;5281239;28;20024;-75
2023/06/22 02:17:26;;;;;;;7.65;6.20;;;;;;;;;;5281985;28;20025;-75
2023/06/22 02:19:58;;;;;;;6.93;6.25;;;;;;;;;;5281890;28;20079;-75
2023/06/22 02:22:29;;;;;;;6.80;6.20;;;;;;;;;;5281112;28;20126;-75
2023/06/22 02:25:00;;;;;;;9.43;6.93;;;;;;;;;;5281509;28;20025;-75
2023/06/22 02:27:31;;;;;;;8.02;6.97;;;;;;;;;;5281716;28;20626;-75
2023/06/22 02:30:03;;;;;;;9.43;7.30;;;;;;;;;;5280681;28;20023;-75
2023/06/22 02:32:34;;;;;;;9.05;7.43;;;;;;;;;;5281587;28;20107;-75
2023/06/22 02:35:06;;;;;;;7.95;7.25;;;;;;;;;;5280864;28;20132;-75
2023/06/22 02:37:41;;;;;;;8.15;7.43;;;;;;;;;;5281735;28;20025;-75
2023/06/22 02:40:12;;;;;;;9.43;7.95;;;;;;;;;;5281578;28;20108;-75
2023/06/22 02:42:43;;;;;;;7.68;6.88;;;;;;;;;;5280527;28;20103;-75
2023/06/22 02:45:15;;;;;;;7.90;7.20;;;;;;;;;;5282130;28;20108;-75
2023/06/22 02:47:47;;;;;;;7.80;7.10;;;;;;;;;;5281417;28;20308;-75
2023/06/22 02:50:18;;;;;;;7.70;6.82;;;;;;;;;;5280974;28;20045;-75
2023/06/22 02:52:50;;;;;;;7.47;6.77;;;;;;;;;;5281274;28;20110;-75
2023/06/22 02:55:21;;;;;;;8.27;7.57;;;;;;;;;;5281482;28;20653;-75
2023/06/22 02:57:52;;;;;;;7.30;6.60;;;;;;;;;;5280171;28;20372;-76
2023/06/22 03:00:30;;;;;;;10.75;7.78;;;;;;;;;;5281035;28;20432;-76
2023/06/22 03:03:01;;;;;;;8.82;7.78;;;;;;;;;;5280389;28;20478;-76
2023/06/22 03:05:32;;;;;;;8.75;7.85;;;;;;;;;;5283154;28;20027;-76
2023/06/22 03:08:03;;;;;;;8.93;8.02;;;;;;;;;;5285109;28;20023;-76
2023/06/22 03:10:35;;;;;;;8.40;7.60;;;;;;;;;;5284558;28;20230;-76
2023/06/22 03:13:06;;;;;;;8.87;7.43;;;;;;;;;;5285075;28;20271;-76
2023/06/22 03:15:37;;;;;;;8.13;7.47;;;;;;;;;;5285149;28;20259;-75
2023/06/22 03:18:08;;;;;;;8.40;7.70;;;;;;;;;;5284276;28;20459;-76
2023/06/22 03:20:39;;;;;;;8.70;7.82;;;;;;;;;;5284897;28;20039;-75
2023/06/22 03:23:11;;;;;;;8.63;7.68;;;;;;;;;;5285349;28;20020;-75
2023/06/22 03:25:44;;;;;;;8.88;7.78;;;;;;;;;;5289504;28;20028;-75
2023/06/22 03:28:16;;;;;;;8.73;7.93;;;;;;;;;;5287210;28;20016;-76
2023/06/22 03:30:47;;;;;;;8.85;8.00;;;;;;;;;;5284999;28;20357;-76
2023/06/22 03:33:18;;;;;;;9.18;8.27;;;;;;;;;;5284761;28;20020;-76
2023/06/22 03:35:50;;;;;;;9.45;8.38;;;;;;;;;;5284486;28;20028;-76
2023/06/22 03:38:21;;;;;;;9.73;8.82;;;;;;;;;;5284274;28;20021;-76
2023/06/22 03:40:52;;;;;;;9.98;9.10;;;;;;;;;;5284185;28;20036;-76
2023/06/22 03:43:23;;;;;;;9.85;8.57;;;;;;;;;;5284832;28;20008;-76
2023/06/22 03:45:54;;;;;;;10.30;9.40;;;;;;;;;;5284018;28;20025;-76
2023/06/22 03:48:26;;;;;;;10.25;9.25;;;;;;;;;;5284661;28;20376;-76
2023/06/22 03:50:58;;;;;;;10.43;9.40;;;;;;;;;;5284264;28;20056;-76
2023/06/22 03:53:29;;;;;;;10.85;9.65;;;;;;;;;;5283565;28;20024;-76
2023/06/22 03:56:01;;;;;;;9.60;8.75;;;;;;;;;;5284625;28;20026;-77
2023/06/22 03:58:33;;;;;;;9.70;8.80;;;;;;;;;;5284828;28;20016;-77
2023/06/22 04:01:04;;;;;;;11.50;9.30;;;;;;;;;;5283762;28;20033;-76
2023/06/22 04:03:35;;;;;;;11.57;9.40;;;;;;;;;;5284287;28;20020;-76
2023/06/22 04:06:07;;;;;;;10.05;8.93;;;;;;;;;;5284069;28;20771;-77
2023/06/22 04:08:38;;;;;;;10.18;9.18;;;;;;;;;;5283440;28;20016;-76
2023/06/22 04:11:09;;;;;;;11.48;9.68;;;;;;;;;;5284172;28;20044;-75
2023/06/22 04:13:40;;;;;;;10.00;9.10;;;;;;;;;;5283101;28;20104;-76
2023/06/22 04:16:11;;;;;;;12.32;10.27;;;;;;;;;;5283370;28;20271;-76
2023/06/22 04:18:43;;;;;;;11.77;10.57;;;;;;;;;;5283853;28;20464;-76
2023/06/22 04:21:14;;;;;;;10.18;9.20;;;;;;;;;;5283605;28;20093;-76
2023/06/22 04:23:46;;;;;;;9.65;8.85;;;;;;;;;;5283598;28;20027;-76
2023/06/22 04:26:17;;;;;;;11.13;10.10;;;;;;;;;;5284339;28;20020;-77
2023/06/22 04:28:53;;;;;;;11.07;9.95;;;;;;;;;;5282758;28;20016;-77
2023/06/22 04:31:31;;;;;;;10.73;9.73;;;;;;;;;;5283716;28;20028;-77
2023/06/22 04:34:06;;;;;;;9.85;8.88;;;;;;;;;;5283809;28;20440;-76
2023/06/22 04:36:39;;;;;;;10.90;9.75;;;;;;;;;;5282891;28;20078;-76
2023/06/22 04:39:11;;;;;;;10.05;8.93;;;;;;;;;;5283785;28;20066;-76
2023/06/22 04:41:42;;;;;;;10.95;9.85;;;;;;;;;;5282885;28;20025;-76
2023/06/22 04:44:23;;;;;;;11.88;8.80;;;;;;;;;;5284055;28;20020;-76
2023/06/22 04:47:03;;;;;;;9.23;8.32;;;;;;;;;;5283457;28;20032;-76
2023/06/22 04:49:40;;;;;;;9.68;8.80;;;;;;;;;;5282795;28;20070;-75
2023/06/22 04:52:11;;;;;;;10.95;9.82;;;;;;;;;;5283243;28;20398;-76
2023/06/22 04:54:47;;;;;;;10.80;9.73;;;;;;;;;;5282988;28;20362;-76
2023/06/22 04:57:18;;;;;;;10.65;9.50;;;;;;;;;;5283060;28;20027;-76
2023/06/22 04:59:49;;;;;;;10.18;9.32;;;;;;;;;;5282997;28;20020;-76
2023/06/22 05:02:21;;;;;;;10.37;9.37;;;;;;;;;;5283248;28;20032;-76
2023/06/22 05:04:56;;;;;;;11.43;9.55;;;;;;;;;;5282083;28;20258;-77
2023/06/22 05:07:27;;;;;;;11.00;9.90;;;;;;;;;;5283098;28;20043;-77
2023/06/22 05:09:59;;;;;;;10.50;9.43;;;;;;;;;;5282000;28;20024;-76
2023/06/22 05:12:30;;;;;;;10.85;9.63;;;;;;;;;;5282869;28;20452;-77
2023/06/22 05:15:02;;;;;;;10.48;9.05;;;;;;;;;;5283347;28;20025;-77
2023/06/22 05:17:33;;;;;;;11.00;9.80;;;;;;;;;;5282443;28;20012;-76
2023/06/22 05:20:06;;;;;;;11.65;9.52;;;;;;;;;;5283137;28;20036;-77
2023/06/22 05:22:37;;;;;;;11.32;10.13;;;;;;;;;;5283091;28;20020;-77
2023/06/22 05:25:09;;;;;;;11.40;10.20;;;;;;;;;;5282088;28;20112;-76
2023/06/22 05:27:41;;;;;;;12.13;10.85;;;;;;;;;;5282811;28;20460;-76
2023/06/22 05:30:12;;;;;;;12.88;11.45;;;;;;;;;;5282980;28;20025;-77
2023/06/22 05:32:44;;;;;;;13.68;11.88;;;;;;;;;;5281861;28;20027;-76
2023/06/22 05:35:15;;;;;;;12.63;11.30;;;;;;;;;;5283037;28;20040;-76
2023/06/22 05:37:46;;;;;;;12.85;11.63;;;;;;;;;;5281562;28;20025;-76
2023/06/22 05:40:17;;;;;;;13.70;12.25;;;;;;;;;;5282921;28;20036;-76
2023/06/22 05:42:49;;;;;;;14.68;13.18;;;;;;;;;;5282302;28;20150;-76
2023/06/22 05:45:20;;;;;;;15.07;13.68;;;;;;;;;;5282039;28;20056;-76
2023/06/22 05:47:51;;;;;;;13.45;12.00;;;;;;;;;;5282282;28;20011;-76
2023/06/22 05:50:22;;;;;;;15.60;14.07;;;;;;;;;;5282491;28;20049;-76
2023/06/22 05:52:53;;;;;;;14.73;12.52;;;;;;;;;;5281585;28;20020;-78
2023/06/22 05:55:25;;;;;;;14.40;12.90;;;;;;;;;;5282432;28;20031;-77
2023/06/22 05:57:56;;;;;;;14.73;13.23;;;;;;;;;;5282309;28;20262;-76
2023/06/22 06:00:27;;;;;;;15.07;13.57;;;;;;;;;;5281161;28;20281;-76
2023/06/22 06:03:03;;;;;;;14.37;12.87;;;;;;;;;;5282130;28;20300;-76
2023/06/22 06:05:34;;;;;;;14.57;13.07;;;;;;;;;;5282385;28;20257;-77
2023/06/22 06:08:06;;;;;;;14.30;12.95;;;;;;;;;;5283487;28;20016;-75
2023/06/22 06:10:37;;;;;;;13.50;12.23;;;;;;;;;;5287177;28;20370;-76
2023/06/22 06:13:08;;;;;;;14.88;13.50;;;;;;;;;;5281868;28;20024;-76
2023/06/22 06:15:39;;;;;;;14.67;13.37;;;;;;;;;;5282347;28;20048;-76
2023/06/22 06:18:11;;;;;;;14.88;13.38;;;;;;;;;;5282528;28;20269;-77
2023/06/22 06:20:42;;;;;;;15.33;13.33;;;;;;;;;;5280758;28;20078;-77
2023/06/22 06:23:13;;;;;;;16.42;14.82;;;;;;;;;;5282094;28;20566;-76
2023/06/22 06:25:44;;;;;;;15.83;14.33;;;;;;;;;;5281560;28;20107;-77
2023/06/22 06:28:16;;;;;;;12.93;11.60;;;;;;;;;;5281329;28;20273;-76
2023/06/22 06:30:47;;;;;;;16.42;13.80;;;;;;;;;;5281537;28;20809;-76
2023/06/22 06:33:20;;;;;;;15.63;13.77;;;;;;;;;;5282008;28;20513;-76
2023/06/22 06:35:52;;;;;;;14.73;13.43;;;;;;;;;;5280610;28;20275;-77
2023/06/22 06:38:23;;;;;;;14.97;13.47;;;;;;;;;;5282146;28;20024;-77
2023/06/22 06:40:54;;;;;;;15.27;13.80;;;;;;;;;;5281117;28;20344;-76
2023/06/22 06:43:25;;;;;;;14.57;13.10;;;;;;;;;;5281110;28;20375;-76
2023/06/22 06:45:57;;;;;;;14.32;13.02;;;;;;;;;;5281628;28;20020;-77
2023/06/22 06:48:28;;;;;;;13.75;12.27;;;;;;;;;;5280739;28;20025;-76
2023/06/22 06:50:59;;;;;;;13.43;11.95;;;;;;;;;;5281480;28;20756;-77
2023/06/22 06:53:30;;;;;;;15.07;13.00;;;;;;;;;;5281246;28;20017;-76
2023/06/22 06:56:02;;;;;;;14.65;13.13;;;;;;;;;;5280693;28;20809;-77
2023/06/22 06:58:33;;;;;;;15.48;13.18;;;;;;;;;;5281519;28;20475;-76
2023/06/22 07:01:04;;;;;;;14.50;13.02;;;;;;;;;;5281451;28;20040;-77
2023/06/22 07:03:35;;;;;;;15.35;13.85;;;;;;;;;;5281050;28;20467;-77
2023/06/22 07:06:07;;;;;;;13.77;12.37;;;;;;;;;;5281420;28;20020;-79
2023/06/22 07:08:39;;;;;;;16.63;14.65;;;;;;;;;;5281711;28;20270;-78
2023/06/22 07:11:11;;;;;;;14.15;12.75;;;;;;;;;;5278769;28;20016;-77
2023/06/22 07:13:42;;;;;;;14.77;13.30;;;;;;;;;;5279228;28;20138;-76
2023/06/22 07:16:13;;;;;;;14.37;12.93;;;;;;;;;;5280359;28;20275;-76
2023/06/22 07:18:44;;;;;;;14.47;12.53;;;;;;;;;;5281112;28;20630;-76
2023/06/22 07:21:15;;;;;;;13.90;12.52;;;;;;;;;;5281364;28;20305;-75
2023/06/22 07:23:47;;;;;;;14.77;13.18;;;;;;;;;;5279416;28;20031;-75
2023/06/22 07:26:18;;;;;;;14.53;13.13;;;;;;;;;;5279154;28;20056;-76
2023/06/22 07:28:50;;;;;;;15.47;13.90;;;;;;;;;;5280618;28;20739;-76
2023/06/22 07:31:23;;;;;;;15.25;13.65;;;;;;;;;;5280293;28;20320;-75
2023/06/22 07:33:54;;;;;;;15.10;13.65;;;;;;;;;;5281292;28;20020;-76
2023/06/22 07:36:26;;;;;;;16.13;14.43;;;;;;;;;;5280987;28;20024;-76
2023/06/22 07:38:58;;;;;;;16.15;14.60;;;;;;;;;;5280476;28;20733;-76
2023/06/22 07:41:29;;;;;;;17.08;14.15;;;;;;;;;;5280890;28;20056;-75
2023/06/22 07:44:02;;;;;;;16.80;14.75;;;;;;;;;;5281151;28;20040;-76
2023/06/22 07:46:33;;;;;;;15.07;13.70;;;;;;;;;;5280240;28;20016;-76
2023/06/22 07:49:04;;;;;;;16.65;14.88;;;;;;;;;;5281355;28;20025;-77
2023/06/22 07:51:35;;;;;;;16.63;15.10;;;;;;;;;;5280385;28;20044;-75
2023/06/22 07:54:07;;;;;;;17.02;15.43;;;;;;;;;;5284406;28;20317;-75
2023/06/22 07:56:38;;;;;;;17.02;15.05;;;;;;;;;;5284050;28;20017;-76
2023/06/22 07:59:10;;;;;;;16.13;14.50;;;;;;;;;;5283614;28;20430;-78
2023/06/22 08:01:42;;;;;;;16.05;14.60;;;;;;;;;;5284448;28;20028;-79
2023/06/22 08:04:13;;;;;;;15.98;14.57;;;;;;;;;;5284763;28;20444;-79
2023/06/22 08:06:44;;;;;;;17.77;16.13;;;;;;;;;;5283551;28;20051;-79
2023/06/22 08:09:15;;;;;;;17.17;14.50;;;;;;;;;;5284812;28;20353;-78
2023/06/22 08:11:47;;;;;;;16.95;15.40;;;;;;;;;;5284009;28;20013;-78
2023/06/22 08:14:19;;;;;;;17.48;15.88;;;;;;;;;;5284236;28;20481;-79
2023/06/22 08:16:50;;;;;;;17.40;15.80;;;;;;;;;;5284153;28;20013;-78
2023/06/22 08:19:21;;;;;;;19.20;17.33;;;;;;;;;;5284625;28;20024;-79
2023/06/22 08:21:52;;;;;;;17.23;15.60;;;;;;;;;;5283034;28;20051;-79
2023/06/22 08:24:23;;;;;;;16.00;14.70;;;;;;;;;;5283938;28;20020;-79
2023/06/22 08:26:55;;;;;;;15.80;14.23;;;;;;;;;;5283596;28;20025;-79
2023/06/22 08:29:26;;;;;;;14.95;13.55;;;;;;;;;;5284017;28;20263;-79
2023/06/22 08:31:57;;;;;;;16.75;15.18;;;;;;;;;;5284224;28;20020;-80
2023/06/22 08:34:28;;;;;;;15.10;13.70;;;;;;;;;;5283225;28;20391;-75
2023/06/22 08:37:00;;;;;;;15.48;13.88;;;;;;;;;;5283647;28;20364;-83
2023/06/22 08:39:32;;;;;;;15.15;13.65;;;;;;;;;;5284486;28;20467;-80
2023/06/22 08:42:03;;;;;;;14.82;13.35;;;;;;;;;;5283119;28;20440;-79
2023/06/22 08:44:34;;;;;;;14.70;13.50;;;;;;;;;;5284125;28;20044;-79
2023/06/22 08:47:05;;;;;;;14.50;13.10;;;;;;;;;;5284052;28;20012;-79
2023/06/22 08:49:37;;;;;;;14.80;13.40;;;;;;;;;;5286824;28;20035;-78
2023/06/22 08:52:08;;;;;;;13.97;12.70;;;;;;;;;;5293191;28;20064;-73
2023/06/22 08:54:39;;;;;;;13.80;12.43;;;;;;;;;;5282938;28;20826;-73
2023/06/22 08:57:10;;;;;;;13.98;12.45;;;;;;;;;;5283570;28;20017;-73
2023/06/22 08:59:42;;;;;;;13.45;12.05;;;;;;;;;;5283020;28;20020;-72
2023/06/22 09:02:13;;;;;;;11.93;10.82;;;;;;;;;;5282737;28;20314;-72
2023/06/22 09:04:48;;;;;;;12.80;11.55;;;;;;;;;;5282736;28;20016;-73
2023/06/22 09:07:22;;;;;;;11.93;10.73;;;;;;;;;;5283445;28;20121;-73
2023/06/22 09:09:53;;;;;;;12.43;11.43;;;;;;;;;;5282234;28;20043;-73
2023/06/22 09:12:26;;;;;;;11.10;10.10;;;;;;;;;;5282983;28;20021;-73
2023/06/22 09:15:00;;;;;;;11.73;10.52;;;;;;;;;;5282858;28;20126;-74
2023/06/22 09:17:31;;;;;;;12.50;9.82;;;;;;;;;;5282379;28;20025;-73
2023/06/22 09:20:05;;;;;;;10.73;9.70;;;;;;;;;;5282829;28;20108;-73
2023/06/22 09:22:36;;;;;;;11.15;10.07;;;;;;;;;;5282733;28;20107;-73
2023/06/22 09:25:08;;;;;;;10.77;9.67;;;;;;;;;;5282299;28;20439;-74
2023/06/22 09:27:39;;;;;;;11.05;9.50;;;;;;;;;;5282437;28;20282;-73
2023/06/22 09:30:10;;;;;;;11.10;9.13;;;;;;;;;;5282345;28;20019;-72
2023/06/22 09:32:43;;;;;;;9.55;8.65;;;;;;;;;;5282590;28;20277;-73
2023/06/22 09:35:14;;;;;;;11.57;8.82;;;;;;;;;;5282841;28;20047;-73
2023/06/22 09:37:45;;;;;;;8.73;7.85;;;;;;;;;;5281735;28;20048;-73
2023/06/22 09:40:17;;;;;;;10.30;8.05;;;;;;;;;;5282532;28;20078;-73
2023/06/22 09:42:48;;;;;;;8.93;8.00;;;;;;;;;;5282242;28;20532;-73
2023/06/22 09:45:19;;;;;;;8.13;7.33;;;;;;;;;;5281844;28;20052;-73
2023/06/22 09:47:50;;;;;;;8.82;8.00;;;;;;;;;;5281594;28;20271;-72
2023/06/22 09:50:21;;;;;;;10.82;7.18;;;;;;;;;;5282575;28;20083;-73
2023/06/22 09:52:54;;;;;;;10.17;7.80;;;;;;;;;;5281058;28;20031;-73
2023/06/22 09:55:25;;;;;;;9.48;7.38;;;;;;;;;;5282209;28;20251;-72
2023/06/22 09:57:57;;;;;;;8.33;7.50;;;;;;;;;;5281435;28;20421;-73
2023/06/22 10:00:28;;;;;;;7.75;6.95;;;;;;;;;;5281436;28;20419;-72
2023/06/22 10:02:59;;;;;;;8.50;7.65;;;;;;;;;;5279702;28;20857;-73
2023/06/22 10:05:31;;;;;;;7.87;7.00;;;;;;;;;;5279035;28;20426;-73
2023/06/22 10:08:03;;;;;;;7.65;6.90;;;;;;;;;;5279766;28;20257;-73
2023/06/22 10:10:34;;;;;;;8.00;7.00;;;;;;;;;;5279703;28;20698;-73
2023/06/22 10:13:10;;;;;;;8.00;6.23;;;;;;;;;;5279251;28;20104;-73
2023/06/22 10:15:41;;;;;;;9.85;7.03;;;;;;;;;;5279372;28;20337;-73
2023/06/22 10:18:13;;;;;;;8.27;7.40;;;;;;;;;;5282338;28;20101;-73
2023/06/22 10:20:47;;;;;;;10.23;8.00;;;;;;;;;;5280328;28;20072;-71
2023/06/22 10:23:18;;;;;;;8.80;7.90;;;;;;;;;;5282340;28;20345;-78
2023/06/22 10:25:50;;;;;;;9.00;8.20;;;;;;;;;;5281837;28;20116;-76
2023/06/22 10:28:21;;;;;;;8.80;7.90;;;;;;;;;;5281728;28;20021;-76
2023/06/22 10:30:52;;;;;;;8.60;7.80;;;;;;;;;;5281460;28;20267;-75
2023/06/22 10:33:24;;;;;;;8.55;7.75;;;;;;;;;;5281154;28;20308;-76
2023/06/22 10:35:55;;;;;;;8.15;7.00;;;;;;;;;;5282081;28;20025;-76
2023/06/22 10:38:26;;;;;;;11.18;8.18;;;;;;;;;;5282219;28;20063;-81
2023/06/22 10:40:57;;;;;;;8.37;7.57;;;;;;;;;;5281562;28;20479;-80
2023/06/22 10:43:29;;;;;;;10.57;8.00;;;;;;;;;;5282055;28;20365;-80
2023/06/22 10:46:00;;;;;;;9.90;8.95;;;;;;;;;;5281862;28;20153;-79
2023/06/22 10:48:31;;;;;;;9.93;9.07;;;;;;;;;;5281310;28;20032;-79
2023/06/22 10:51:02;;;;;;;10.77;9.83;;;;;;;;;;5281676;28;20053;-80
2023/06/22 10:53:34;;;;;;;11.80;9.93;;;;;;;;;;5281928;28;20271;-80
2023/06/22 10:56:05;;;;;;;10.43;9.43;;;;;;;;;;5280801;28;20611;-81
2023/06/22 10:58:36;;;;;;;11.15;10.05;;;;;;;;;;5281397;28;20453;-80
2023/06/22 11:01:07;;;;;;;11.63;10.60;;;;;;;;;;5281555;28;20547;-79
2023/06/22 11:03:38;;;;;;;13.67;11.33;;;;;;;;;;5280845;28;20266;-79
2023/06/22 11:06:10;;;;;;;12.20;11.00;;;;;;;;;;5281836;28;20263;-77
2023/06/22 11:08:43;;;;;;;13.80;12.50;;;;;;;;;;5279974;28;20262;-78
2023/06/22 11:11:17;;;;;;;13.82;12.63;;;;;;;;;;5282063;28;20270;-78
2023/06/22 11:13:48;;;;;;;13.32;12.13;;;;;;;;;;5281362;28;20123;-75
2023/06/22 11:16:19;;;;;;;14.23;12.93;;;;;;;;;;5280954;28;20428;-76
2023/06/22 11:18:50;;;;;;;13.98;12.60;;;;;;;;;;5281080;28;20275;-77
2023/06/22 11:21:21;;;;;;;13.68;12.48;;;;;;;;;;5281559;28;20388;-76
2023/06/22 11:23:53;;;;;;;14.43;13.13;;;;;;;;;;5277186;28;20012;-75
2023/06/22 11:26:25;;;;;;;14.43;13.03;;;;;;;;;;5282972;28;20760;-78
2023/06/22 11:28:56;;;;;;;16.17;14.57;;;;;;;;;;5285528;28;20273;-79
2023/06/22 11:31:27;;;;;;;16.08;14.57;;;;;;;;;;5284641;28;20123;-79
2023/06/22 11:33:58;;;;;;;16.20;14.63;;;;;;;;;;5284598;28;20035;-79
2023/06/22 11:36:32;;;;;;;16.63;15.00;;;;;;;;;;5295321;28;20016;-80
2023/06/22 11:39:05;;;;;;;17.17;15.38;;;;;;;;;;5293406;28;20020;-76
2023/06/22 11:41:36;;;;;;;16.35;14.75;;;;;;;;;;5284334;28;20239;-74
2023/06/22 11:44:07;;;;;;;17.13;15.55;;;;;;;;;;5283527;28;20494;-76
2023/06/22 11:46:39;;;;;;;17.65;15.80;;;;;;;;;;5284561;28;20062;-78
2023/06/22 11:49:10;;;;;;;17.90;16.13;;;;;;;;;;5284547;28;20024;-78
2023/06/22 11:51:42;;;;;;;16.10;14.47;;;;;;;;;;5283074;28;20143;-78
2023/06/22 11:54:13;;;;;;;17.73;15.65;;;;;;;;;;5284723;28;20254;-77
2023/06/22 11:56:44;;;;;;;19.10;17.37;;;;;;;;;;5284015;28;20036;-76
2023/06/22 11:59:15;;;;;;;20.13;17.60;;;;;;;;;;5283532;28;20282;-76
2023/06/22 12:01:46;;;;;;;20.85;18.85;;;;;;;;;;5283809;28;20030;-75
2023/06/22 12:04:18;;;;;;;21.63;19.60;;;;;;;;;;5282881;28;20052;-75
2023/06/22 12:06:49;;;;;;;21.50;19.52;;;;;;;;;;5297971;28;20418;-76
2023/06/22 12:09:20;;;;;;;20.13;18.13;;;;;;;;;;5284462;28;20017;-75
2023/06/22 12:11:51;;;;;;;21.27;19.27;;;;;;;;;;5282866;28;20602;-74
2023/06/22 12:14:22;;;;;;;22.10;20.10;;;;;;;;;;5282836;28;20272;-75
2023/06/22 12:16:54;;;;;;;20.85;19.10;;;;;;;;;;5283426;28;20277;-78
2023/06/22 12:19:25;;;;;;;19.97;18.17;;;;;;;;;;5282901;28;20028;-76
2023/06/22 12:21:56;;;;;;;18.00;16.48;;;;;;;;;;5283073;28;20287;-77
2023/06/22 12:24:27;;;;;;;18.97;17.07;;;;;;;;;;5283388;28;20067;-78
2023/06/22 12:26:58;;;;;;;18.38;16.58;;;;;;;;;;5282410;28;20332;-78
2023/06/22 12:29:29;;;;;;;19.43;17.63;;;;;;;;;;5283824;28;20486;-78
2023/06/22 12:32:01;;;;;;;19.27;17.65;;;;;;;;;;5283727;28;20290;-78
2023/06/22 12:34:32;;;;;;;20.00;18.20;;;;;;;;;;5282657;28;20103;-74
2023/06/22 12:37:04;;;;;;;19.43;17.67;;;;;;;;;;5283305;28;20617;-76
2023/06/22 12:39:35;;;;;;;20.83;18.90;;;;;;;;;;5283198;28;20267;-72
2023/06/22 12:42:08;;;;;;;19.08;17.45;;;;;;;;;;5282445;28;20343;-77
2023/06/22 12:44:39;;;;;;;18.15;16.45;;;;;;;;;;5283693;28;20017;-75
2023/06/22 12:47:11;;;;;;;16.67;15.07;;;;;;;;;;5283263;28;20355;-76
2023/06/22 12:49:42;;;;;;;19.45;17.65;;;;;;;;;;5283209;28;20016;-75
2023/06/22 12:52:13;;;;;;;18.60;17.00;;;;;;;;;;5283697;28;20094;-75
2023/06/22 12:54:44;;;;;;;19.73;17.95;;;;;;;;;;5282157;28;20451;-74
2023/06/22 12:57:17;;;;;;;17.30;15.87;;;;;;;;;;5283666;28;20028;-74
2023/06/22 12:59:49;;;;;;;18.40;16.70;;;;;;;;;;5282676;28;20729;-75
2023/06/22 13:02:20;;;;;;;18.27;16.27;;;;;;;;;;5282374;28;20017;-75
2023/06/22 13:04:51;;;;;;;19.27;17.63;;;;;;;;;;5282697;28;20086;-72
2023/06/22 13:07:22;;;;;;;17.43;15.93;;;;;;;;;;5283057;28;20075;-75
2023/06/22 13:09:53;;;;;;;16.98;15.38;;;;;;;;;;5282128;28;20271;-75
2023/06/22 13:12:25;;;;;;;15.60;14.30;;;;;;;;;;5282856;28;20028;-75
2023/06/22 13:14:56;;;;;;;17.55;15.88;;;;;;;;;;5282000;28;20027;-74
2023/06/22 13:17:27;;;;;;;18.38;16.77;;;;;;;;;;5282449;28;20024;-75
2023/06/22 13:19:58;;;;;;;17.23;15.73;;;;;;;;;;5282281;28;20107;-76
2023/06/22 13:22:30;;;;;;;16.05;14.60;;;;;;;;;;5281682;28;20078;-74
2023/06/22 13:25:02;;;;;;;17.17;15.70;;;;;;;;;;5282252;28;20467;-73
2023/06/22 13:27:33;;;;;;;14.73;13.43;;;;;;;;;;5282280;28;20099;-75
2023/06/22 13:30:04;;;;;;;15.77;14.45;;;;;;;;;;5281665;28;20012;-73
2023/06/22 13:32:36;;;;;;;14.90;13.70;;;;;;;;;;5282460;28;20030;-74
2023/06/22 13:35:08;;;;;;;15.05;13.57;;;;;;;;;;5282422;28;20032;-75
2023/06/22 13:37:39;;;;;;;13.27;12.15;;;;;;;;;;5281244;28;20024;-74
2023/06/22 13:40:11;;;;;;;16.92;15.30;;;;;;;;;;5282104;28;20082;-73
2023/06/22 13:42:42;;;;;;;15.10;13.73;;;;;;;;;;5281595;28;20023;-74
2023/06/22 13:45:13;;;;;;;15.00;13.70;;;;;;;;;;5281333;28;20047;-75
2023/06/22 13:47:44;;;;;;;15.48;14.00;;;;;;;;;;5281653;28;20021;-76
2023/06/22 13:50:15;;;;;;;12.75;11.77;;;;;;;;;;5280762;28;20040;-76
2023/06/22 13:52:47;;;;;;;14.80;13.55;;;;;;;;;;5281965;28;20056;-75
2023/06/22 13:55:20;;;;;;;12.40;11.40;;;;;;;;;;5282298;28;20479;-78
2023/06/22 13:57:52;;;;;;;12.70;11.48;;;;;;;;;;5281020;28;20027;-76
2023/06/22 14:00:24;;;;;;;13.43;12.25;;;;;;;;;;5282172;28;20029;-76
2023/06/22 14:02:56;;;;;;;11.02;10.13;;;;;;;;;;5281572;28;20055;-75
2023/06/22 14:05:27;;;;;;;12.70;11.60;;;;;;;;;;5280707;28;20012;-76
2023/06/22 14:07:58;;;;;;;13.52;12.40;;;;;;;;;;5281578;28;20021;-76
2023/06/22 14:10:30;;;;;;;12.02;11.02;;;;;;;;;;5281519;28;20025;-76
2023/06/22 14:13:02;;;;;;;10.00;9.30;;;;;;;;;;5281202;28;20021;-77
2023/06/22 14:15:33;;;;;;;12.23;11.20;;;;;;;;;;5281950;28;20039;-78
2023/06/22 14:18:04;;;;;;;12.27;11.27;;;;;;;;;;5281828;28;20102;-77
2023/06/22 14:20:35;;;;;;;12.77;11.57;;;;;;;;;;5286349;28;20279;-76
2023/06/22 14:23:06;;;;;;;13.43;12.27;;;;;;;;;;5288513;28;20107;-77
2023/06/22 14:25:38;;;;;;;13.52;12.43;;;;;;;;;;5281830;28;20263;-76
2023/06/22 14:28:10;;;;;;;11.40;10.50;;;;;;;;;;5282083;28;20052;-77
2023/06/22 14:30:41;;;;;;;13.07;12.07;;;;;;;;;;5281466;28;20036;-77
2023/06/22 14:33:12;;;;;;;13.80;12.60;;;;;;;;;;5280987;28;20270;-77
2023/06/22 14:35:44;;;;;;;13.55;12.35;;;;;;;;;;5281803;28;20086;-78
2023/06/22 14:38:15;;;;;;;13.83;12.53;;;;;;;;;;5282319;28;20028;-77
2023/06/22 14:40:46;;;;;;;15.97;14.53;;;;;;;;;;5280650;28;20295;-78
2023/06/22 14:43:17;;;;;;;15.38;13.88;;;;;;;;;;5281238;28;20271;-77
2023/06/22 14:45:49;;;;;;;13.77;12.52;;;;;;;;;;5280733;28;20017;-76
2023/06/22 14:48:20;;;;;;;15.77;14.48;;;;;;;;;;5280795;28;20421;-73
2023/06/22 14:50:51;;;;;;;17.05;15.65;;;;;;;;;;5280602;28;20132;-73
2023/06/22 14:53:23;;;;;;;13.40;12.10;;;;;;;;;;5280483;28;20009;-76